Time;durP1;ratioP1;P1;durP2;ratioP2;P2;SDS_P1;SDS_P2;PMS_P1;PMS_P2;Temp;Humidity;BMP_temperature;BMP_pressure;BME280_temperature;BME280_humidity;BME280_pressure;Samples;Min_cycle;Max_cycle;Signal;HPM_P1;HPM_P2
2022/10/05 00:01:24;;;;;;;4.72;4.32;;;14.50;48.00;;;;;;5012387;28;20178;-44
2022/10/05 00:03:52;;;;;;;6.43;4.43;;;14.50;48.00;;;;;;5012143;28;20171;-43
2022/10/05 00:06:18;;;;;;;4.80;3.70;;;14.90;48.20;;;;;;5011310;28;20222;-43
2022/10/05 00:08:43;;;;;;;7.50;4.67;;;14.50;48.10;;;;;;5012278;28;20305;-44
2022/10/05 00:11:12;;;;;;;6.93;5.07;;;14.40;48.20;;;;;;5011822;28;20194;-43
2022/10/05 00:13:39;;;;;;;6.82;3.80;;;14.40;48.20;;;;;;5011986;28;20657;-44
2022/10/05 00:16:14;;;;;;;6.20;4.20;;;14.50;48.20;;;;;;5011337;28;20278;-43
2022/10/05 00:18:41;;;;;;;7.82;4.80;;;14.50;48.20;;;;;;5011958;28;20316;-44
2022/10/05 00:21:38;;;;;;;4.57;3.67;;;14.50;48.10;;;;;;5012209;28;20182;-43
2022/10/05 00:24:09;;;;;;;4.55;3.80;;;14.50;48.00;;;;;;4968276;28;20186;-45
2022/10/05 00:26:35;;;;;;;5.03;4.25;;;14.50;48.00;;;;;;5011164;28;20570;-43
2022/10/05 00:29:05;;;;;;;5.30;4.80;;;14.50;47.90;;;;;;5011795;28;20604;-43
2022/10/05 00:31:34;;;;;;;4.97;4.47;;;14.50;47.80;;;;;;5012064;28;20589;-44
2022/10/05 00:34:00;;;;;;;5.90;4.70;;;14.50;47.80;;;;;;5012082;28;20178;-45
2022/10/05 00:36:26;;;;;;;5.70;4.07;;;14.40;47.60;;;;;;5011079;28;20222;-44
2022/10/05 00:38:53;;;;;;;6.10;4.40;;;14.50;47.60;;;;;;5011830;28;20413;-42
2022/10/05 00:41:46;;;;;;;4.00;3.60;;;14.40;47.50;;;;;;5011830;28;20206;-43
2022/10/05 00:44:36;;;;;;;3.95;3.25;;;14.40;47.40;;;;;;5011971;28;20178;-43
2022/10/05 00:47:10;;;;;;;5.57;3.78;;;14.30;47.10;;;;;;5011440;28;20167;-43
2022/10/05 00:49:41;;;;;;;10.93;3.72;;;14.30;47.20;;;;;;5013186;28;20262;-42
2022/10/05 00:52:42;;;;;;;6.93;3.60;;;14.20;47.50;;;;;;5015398;28;20221;-44
2022/10/05 00:55:34;;;;;;;4.82;3.17;;;14.20;47.40;;;;;;4935248;29;20402;-43
2022/10/05 00:58:08;;;;;;;6.00;3.92;;;14.20;47.40;;;;;;5012666;28;20271;-42
2022/10/05 01:00:48;;;;;;;6.15;4.75;;;14.10;47.30;;;;;;5015253;28;20175;-43
2022/10/05 01:03:21;;;;;;;8.30;3.95;;;14.10;47.20;;;;;;5015203;28;20567;-44
2022/10/05 01:05:57;;;;;;;3.70;3.35;;;14.00;47.00;;;;;;5014343;28;20207;-43
2022/10/05 01:08:42;;;;;;;5.93;3.60;;;14.00;47.10;;;;;;5014896;28;20638;-43
2022/10/05 01:11:16;;;;;;;4.45;3.65;;;13.90;47.00;;;;;;5014898;28;20669;-43
2022/10/05 01:13:57;;;;;;;6.00;3.30;;;13.90;47.00;;;;;;5014882;28;20154;-43
2022/10/05 01:16:39;;;;;;;3.90;3.50;;;13.80;46.90;;;;;;5014177;28;20193;-44
2022/10/05 01:19:11;;;;;;;9.75;3.97;;;13.80;46.90;;;;;;5014678;28;20186;-43
2022/10/05 01:22:06;;;;;;;5.20;3.45;;;13.70;46.80;;;;;;5014965;28;20198;-42
2022/10/05 01:24:31;;;;;;;5.65;4.50;;;13.70;46.80;;;;;;5014578;28;20179;-44
2022/10/05 01:27:09;;;;;;;4.70;4.13;;;13.60;46.80;;;;;;5014235;28;20668;-43
2022/10/05 01:29:53;;;;;;;3.30;3.00;;;13.60;46.80;;;;;;5014486;28;20178;-43
2022/10/05 01:32:39;;;;;;;8.63;3.05;;;13.60;46.80;;;;;;5014690;28;20183;-43
2022/10/05 01:35:46;;;;;;;4.60;3.92;;;13.60;46.90;;;;;;5014212;28;20213;-42
2022/10/05 01:38:33;;;;;;;6.13;3.58;;;13.50;46.80;;;;;;5013867;28;20186;-43
2022/10/05 01:41:13;;;;;;;7.00;4.03;;;13.50;46.80;;;;;;5014482;28;20202;-42
2022/10/05 01:43:48;;;;;;;3.88;3.45;;;13.40;46.80;;;;;;5014370;28;20179;-43
2022/10/05 01:46:35;;;;;;;8.20;3.80;;;13.40;46.80;;;;;;5013426;28;20224;-44
2022/10/05 01:49:13;;;;;;;3.33;2.88;;;13.40;46.80;;;;;;5014363;28;20189;-43
2022/10/05 01:52:15;;;;;;;4.30;3.30;;;13.30;46.80;;;;;;5014406;28;20159;-44
2022/10/05 01:54:50;;;;;;;4.45;3.10;;;13.30;46.90;;;;;;5014189;28;20198;-43
2022/10/05 01:58:01;;;;;;;3.83;3.42;;;13.30;47.10;;;;;;5013460;28;20162;-43
2022/10/05 02:00:31;;;;;;;6.80;3.95;;;13.20;47.10;;;;;;5013569;28;20334;-43
2022/10/05 02:03:06;;;;;;;7.05;3.95;;;13.20;47.00;;;;;;5013803;28;20642;-43
2022/10/05 02:05:43;;;;;;;4.22;3.35;;;13.20;46.90;;;;;;5013340;28;20206;-44
2022/10/05 02:08:21;;;;;;;5.53;4.20;;;13.20;46.90;;;;;;5013435;28;20206;-44
2022/10/05 02:10:50;;;;;;;5.00;3.45;;;13.20;46.80;;;;;;5013819;28;20182;-43
2022/10/05 02:13:42;;;;;;;4.05;3.10;;;13.10;46.60;;;;;;5013636;28;20174;-42
2022/10/05 02:16:20;;;;;;;17.33;15.55;;;13.10;46.70;;;;;;5013318;28;20210;-43
2022/10/05 02:19:21;;;;;;;34.38;30.75;;;13.00;46.70;;;;;;5013711;28;20261;-43
2022/10/05 02:21:57;;;;;;;26.52;23.63;;;13.00;46.70;;;;;;4959294;28;20191;-44
2022/10/05 02:24:31;;;;;;;28.98;25.70;;;12.90;46.80;;;;;;5013826;28;20224;-43
2022/10/05 02:26:57;;;;;;;30.83;26.63;;;13.00;47.00;;;;;;5013731;28;20258;-42
2022/10/05 02:29:28;;;;;;;22.63;20.33;;;13.00;46.90;;;;;;5013730;28;20179;-43
2022/10/05 02:32:02;;;;;;;22.98;20.65;;;13.00;46.70;;;;;;5013526;28;20500;-43
2022/10/05 02:34:35;;;;;;;22.50;19.17;;;12.90;46.50;;;;;;5013472;28;20179;-43
2022/10/05 02:37:33;;;;;;;18.58;16.67;;;12.90;46.60;;;;;;5013397;28;20171;-43
2022/10/05 02:40:03;;;;;;;19.08;15.40;;;12.90;46.60;;;;;;4998703;28;20179;-43
2022/10/05 02:42:38;;;;;;;32.22;19.00;;;12.90;46.70;;;;;;5013245;28;20155;-43
2022/10/05 02:45:28;;;;;;;18.90;17.10;;;12.80;46.60;;;;;;5013224;28;20201;-43
2022/10/05 02:48:35;;;;;;;19.25;17.25;;;12.80;46.70;;;;;;5013056;28;20656;-43
2022/10/05 02:51:12;;;;;;;18.17;16.40;;;12.80;46.60;;;;;;5013199;28;20218;-43
2022/10/05 02:53:59;;;;;;;14.10;10.88;;;12.80;46.50;;;;;;5013324;28;20213;-42
2022/10/05 02:56:37;;;;;;;9.77;7.75;;;12.80;46.30;;;;;;5012873;28;20204;-42
2022/10/05 02:59:13;;;;;;;9.52;8.20;;;12.80;46.30;;;;;;5012909;28;20274;-43
2022/10/05 03:02:03;;;;;;;9.15;8.02;;;12.70;46.30;;;;;;5012901;28;20170;-42
2022/10/05 03:04:58;;;;;;;10.45;9.25;;;12.60;46.20;;;;;;5012754;28;20623;-43
2022/10/05 03:07:53;;;;;;;11.68;7.70;;;12.60;46.40;;;;;;5012790;28;20167;-43
2022/10/05 03:10:37;;;;;;;9.93;7.95;;;12.60;46.70;;;;;;5012568;28;20178;-43
2022/10/05 03:13:19;;;;;;;9.73;7.82;;;12.50;46.60;;;;;;5012069;28;20180;-43
2022/10/05 03:16:06;;;;;;;8.65;7.25;;;12.50;46.70;;;;;;5012478;28;20289;-43
2022/10/05 03:19:09;;;;;;;11.63;6.78;;;12.50;46.60;;;;;;5012605;28;20550;-43
2022/10/05 03:21:43;;;;;;;8.93;6.63;;;12.50;46.40;;;;;;5012505;28;20181;-43
2022/10/05 03:24:36;;;;;;;6.75;5.55;;;12.40;46.60;;;;;;5012531;28;20696;-43
2022/10/05 03:27:05;;;;;;;10.13;5.32;;;12.40;46.50;;;;;;5012578;28;20190;-43
2022/10/05 03:29:57;;;;;;;6.60;4.07;;;12.40;46.40;;;;;;5012471;28;20555;-43
2022/10/05 03:32:47;;;;;;;4.50;4.10;;;12.40;46.50;;;;;;5003417;28;20175;-43
2022/10/05 03:35:38;;;;;;;5.05;4.28;;;12.30;46.50;;;;;;5012283;28;20206;-42
2022/10/05 03:38:26;;;;;;;16.85;7.85;;;12.30;46.60;;;;;;5012638;28;20178;-43
2022/10/05 03:40:57;;;;;;;8.00;7.30;;;12.30;46.80;;;;;;5012334;28;20183;-43
2022/10/05 03:43:32;;;;;;;9.55;6.90;;;12.30;47.10;;;;;;5012488;28;20202;-43
2022/10/05 03:46:36;;;;;;;6.53;5.97;;;12.20;46.90;;;;;;5011692;28;20579;-42
2022/10/05 03:49:30;;;;;;;8.50;7.65;;;12.30;46.80;;;;;;5012164;28;20178;-42
2022/10/05 03:52:14;;;;;;;8.15;6.28;;;12.30;46.60;;;;;;5012456;28;20202;-42
2022/10/05 03:54:48;;;;;;;5.85;5.35;;;12.30;46.70;;;;;;5012442;28;20158;-42
2022/10/05 03:57:19;;;;;;;6.43;5.82;;;12.20;46.60;;;;;;5011642;28;20246;-42
2022/10/05 04:00:05;;;;;;;7.50;5.90;;;12.20;46.40;;;;;;5012456;28;20205;-43
2022/10/05 04:02:52;;;;;;;9.32;7.32;;;12.20;46.30;;;;;;5012082;28;20170;-42
2022/10/05 04:05:23;;;;;;;5.82;5.15;;;12.20;46.50;;;;;;5011856;28;20540;-42
2022/10/05 04:08:06;;;;;;;15.13;6.13;;;12.10;46.60;;;;;;4994110;28;20162;-42
2022/10/05 04:10:43;;;;;;;6.90;6.20;;;12.10;46.60;;;;;;5012282;28;20185;-42
2022/10/05 04:13:11;;;;;;;8.68;5.70;;;12.10;46.60;;;;;;5012051;28;20166;-42
2022/10/05 04:15:46;;;;;;;7.53;5.10;;;12.10;46.50;;;;;;5011444;28;20226;-42
2022/10/05 04:18:30;;;;;;;6.97;5.07;;;12.10;46.50;;;;;;5011827;28;20658;-42
2022/10/05 04:21:02;;;;;;;7.35;4.88;;;12.10;46.40;;;;;;5011878;28;20681;-42
2022/10/05 04:23:28;;;;;;;8.48;5.00;;;12.10;46.30;;;;;;5013172;28;20643;-42
2022/10/05 04:25:59;;;;;;;6.93;6.23;;;12.10;46.20;;;;;;5015233;28;20298;-42
2022/10/05 04:28:33;;;;;;;5.97;4.88;;;12.10;46.30;;;;;;5015718;28;20305;-42
2022/10/05 04:31:02;;;;;;;5.65;4.30;;;12.00;46.10;;;;;;5015611;28;20921;-42
2022/10/05 04:33:27;;;;;;;6.50;4.45;;;12.00;46.00;;;;;;5015557;28;20659;-42
2022/10/05 04:36:33;;;;;;;8.03;4.80;;;12.00;46.10;;;;;;5014704;28;20280;-42
2022/10/05 04:39:20;;;;;;;7.90;4.70;;;12.00;46.10;;;;;;5004821;28;20186;-42
2022/10/05 04:42:01;;;;;;;7.15;4.68;;;11.90;46.10;;;;;;5015398;28;20163;-42
2022/10/05 04:44:58;;;;;;;7.68;5.60;;;11.80;46.20;;;;;;5015436;28;20174;-43
2022/10/05 04:47:34;;;;;;;6.97;4.32;;;11.80;46.50;;;;;;5014661;28;20633;-43
2022/10/05 04:50:17;;;;;;;7.88;4.65;;;11.80;46.50;;;;;;5015558;28;20236;-42
2022/10/05 04:53:16;;;;;;;8.23;4.82;;;11.80;46.50;;;;;;5015359;28;20202;-42
2022/10/05 04:55:52;;;;;;;6.53;3.70;;;11.80;46.40;;;;;;5014716;28;20203;-43
2022/10/05 04:58:46;;;;;;;7.82;4.90;;;11.80;46.50;;;;;;5015123;28;20179;-42
2022/10/05 05:01:27;;;;;;;5.07;4.53;;;11.80;46.40;;;;;;5015076;28;20167;-41
2022/10/05 05:04:24;;;;;;;5.60;4.75;;;11.80;46.50;;;;;;5014989;28;20178;-42
2022/10/05 05:07:19;;;;;;;7.05;5.15;;;11.80;46.50;;;;;;5014255;28;20206;-43
2022/10/05 05:10:25;;;;;;;5.80;4.20;;;11.70;46.50;;;;;;5012461;28;20174;-43
2022/10/05 05:13:12;;;;;;;9.50;4.07;;;11.70;46.50;;;;;;4935049;29;20177;-43
2022/10/05 05:15:53;;;;;;;8.88;5.43;;;11.70;47.30;;;;;;4934493;29;20207;-42
2022/10/05 05:18:30;;;;;;;6.45;4.95;;;11.60;46.40;;;;;;4934915;29;20185;-43
2022/10/05 05:21:29;;;;;;;8.18;4.95;;;11.60;46.20;;;;;;4934800;29;20233;-43
2022/10/05 05:24:04;;;;;;;7.95;4.57;;;11.60;46.40;;;;;;4934879;29;20192;-43
2022/10/05 05:26:39;;;;;;;14.50;4.78;;;11.60;46.50;;;;;;4934235;29;20224;-44
2022/10/05 05:29:28;;;;;;;7.30;4.65;;;11.60;46.50;;;;;;4934700;29;20614;-44
2022/10/05 05:32:28;;;;;;;7.60;5.72;;;11.60;46.60;;;;;;4927941;29;20272;-44
2022/10/05 05:35:00;;;;;;;11.02;5.53;;;11.60;46.80;;;;;;4933704;29;20602;-44
2022/10/05 05:37:50;;;;;;;7.50;5.72;;;11.60;46.90;;;;;;4934023;29;20180;-45
2022/10/05 05:40:31;;;;;;;7.70;5.43;;;11.60;46.90;;;;;;4934630;29;20221;-44
2022/10/05 05:43:07;;;;;;;8.18;5.75;;;11.50;47.00;;;;;;4953511;28;20520;-44
2022/10/05 05:45:35;;;;;;;7.15;6.10;;;11.50;47.20;;;;;;5013545;28;20202;-45
2022/10/05 05:48:11;;;;;;;9.15;8.15;;;11.50;47.30;;;;;;5013947;28;20183;-44
2022/10/05 05:50:42;;;;;;;15.25;7.43;;;11.50;47.60;;;;;;4996654;28;20305;-44
2022/10/05 05:53:23;;;;;;;8.27;6.22;;;11.60;47.40;;;;;;5014201;28;20274;-45
2022/10/05 05:55:59;;;;;;;13.30;7.03;;;11.60;47.40;;;;;;5013492;28;20933;-45
2022/10/05 05:58:43;;;;;;;10.40;6.50;;;11.70;47.60;;;;;;5014246;28;20169;-44
2022/10/05 06:01:38;;;;;;;12.25;7.60;;;11.70;47.40;;;;;;5014204;28;20194;-45
2022/10/05 06:04:35;;;;;;;8.75;5.75;;;11.70;47.50;;;;;;5013843;28;20822;-43
2022/10/05 06:07:03;;;;;;;11.30;6.15;;;11.70;47.60;;;;;;5013616;28;20607;-44
2022/10/05 06:09:41;;;;;;;11.32;6.32;;;11.80;47.80;;;;;;5013838;28;20170;-44
2022/10/05 06:12:15;;;;;;;8.45;6.22;;;11.80;47.70;;;;;;5013803;28;20185;-44
2022/10/05 06:14:53;;;;;;;10.00;5.95;;;11.90;47.80;;;;;;5013706;28;20693;-44
2022/10/05 06:17:56;;;;;;;9.38;5.82;;;11.90;47.80;;;;;;5012961;28;20177;-44
2022/10/05 06:20:34;;;;;;;12.25;7.38;;;12.00;47.60;;;;;;4933793;29;20180;-45
2022/10/05 06:23:05;;;;;;;8.70;5.40;;;12.00;47.80;;;;;;4933870;29;20185;-44
2022/10/05 06:25:40;;;;;;;9.60;6.20;;;12.00;47.90;;;;;;4933277;29;20210;-45
2022/10/05 06:28:11;;;;;;;10.07;6.70;;;12.10;48.20;;;;;;4933653;29;20245;-44
2022/10/05 06:30:42;;;;;;;7.13;5.82;;;12.10;48.40;;;;;;4933591;29;20204;-45
2022/10/05 06:33:26;;;;;;;7.68;5.47;;;12.20;48.50;;;;;;4933668;29;20171;-43
2022/10/05 06:36:12;;;;;;;7.45;6.75;;;12.30;48.70;;;;;;4932755;29;20227;-43
2022/10/05 06:39:11;;;;;;;7.93;5.40;;;12.50;48.80;;;;;;4933495;29;20680;-45
2022/10/05 06:41:40;;;;;;;12.18;5.78;;;12.60;48.80;;;;;;4933445;29;20193;-45
2022/10/05 06:44:13;;;;;;;10.77;6.22;;;12.70;48.90;;;;;;4933342;29;20268;-44
2022/10/05 06:47:13;;;;;;;13.55;6.97;;;12.90;49.00;;;;;;4932631;29;20247;-46
2022/10/05 06:50:01;;;;;;;9.93;7.07;;;13.00;49.40;;;;;;4933381;29;20591;-45
2022/10/05 06:53:17;;;;;;;10.77;6.93;;;13.20;49.80;;;;;;4933036;29;20173;-45
2022/10/05 06:56:14;;;;;;;11.45;7.15;;;13.40;50.20;;;;;;4978510;28;20206;-45
2022/10/05 06:58:49;;;;;;;7.38;5.68;;;13.40;50.80;;;;;;5012894;28;20214;-45
2022/10/05 07:01:46;;;;;;;15.32;6.72;;;13.60;50.60;;;;;;4995147;28;20519;-44
2022/10/05 07:04:18;;;;;;;9.43;6.85;;;13.80;51.20;;;;;;5012774;28;20626;-45
2022/10/05 07:07:01;;;;;;;6.70;6.10;;;14.00;50.50;;;;;;5012021;28;20206;-44
2022/10/05 07:09:33;;;;;;;6.68;5.97;;;14.10;50.60;;;;;;5012385;28;20175;-44
2022/10/05 07:12:17;;;;;;;10.57;6.25;;;14.30;50.60;;;;;;5012714;28;20173;-44
2022/10/05 07:15:00;;;;;;;9.10;5.70;;;14.40;50.70;;;;;;5012470;28;20185;-45
2022/10/05 07:17:29;;;;;;;7.88;5.57;;;14.50;50.60;;;;;;5011902;28;20174;-46
2022/10/05 07:20:18;;;;;;;7.30;5.97;;;14.60;50.30;;;;;;5012748;28;20186;-45
2022/10/05 07:23:07;;;;;;;9.32;5.50;;;14.80;50.40;;;;;;5012747;28;20193;-47
2022/10/05 07:26:00;;;;;;;7.15;6.00;;;15.00;50.00;;;;;;5011764;28;20717;-45
2022/10/05 07:28:46;;;;;;;8.45;6.28;;;15.10;50.10;;;;;;5012465;28;20250;-46
2022/10/05 07:31:34;;;;;;;8.63;5.60;;;15.10;49.80;;;;;;5012409;28;20174;-45
2022/10/05 07:34:17;;;;;;;8.40;5.70;;;15.30;49.70;;;;;;5012332;28;20253;-44
2022/10/05 07:40:01;;;;;;;7.40;5.43;;;15.50;48.90;;;;;;5012368;28;20182;-45
2022/10/05 07:42:30;;;;;;;7.88;5.60;;;15.60;49.00;;;;;;5012263;28;20638;-44
2022/10/05 07:45:21;;;;;;;6.65;5.05;;;15.70;48.90;;;;;;5012261;28;20206;-44
2022/10/05 07:47:55;;;;;;;7.30;5.78;;;15.90;48.70;;;;;;5011675;28;20170;-46
2022/10/05 07:50:45;;;;;;;12.10;5.82;;;16.00;48.60;;;;;;5012293;28;20215;-45
2022/10/05 07:53:21;;;;;;;7.63;5.40;;;16.20;48.00;;;;;;5012432;28;20229;-45
2022/10/05 07:55:55;;;;;;;7.38;5.70;;;16.20;47.60;;;;;;5011414;28;20202;-44
2022/10/05 07:58:40;;;;;;;6.80;6.10;;;16.30;48.20;;;;;;5013492;28;20179;-46
2022/10/05 08:01:18;;;;;;;10.95;6.57;;;16.40;47.80;;;;;;5016164;28;20225;-46
2022/10/05 08:04:02;;;;;;;6.05;5.45;;;16.60;47.50;;;;;;5016444;28;20245;-44
2022/10/05 08:06:37;;;;;;;5.22;4.00;;;16.90;47.20;;;;;;5016172;28;20241;-44
2022/10/05 08:09:21;;;;;;;4.93;4.55;;;16.90;47.30;;;;;;5016280;28;20630;-44
2022/10/05 08:12:05;;;;;;;7.05;5.03;;;17.10;46.00;;;;;;5016249;28;20182;-44
2022/10/05 08:14:56;;;;;;;6.20;4.57;;;17.00;46.10;;;;;;5016240;28;20253;-43
2022/10/05 08:17:28;;;;;;;6.95;5.15;;;17.20;46.70;;;;;;5015791;28;20689;-44
2022/10/05 08:20:12;;;;;;;7.75;4.40;;;17.30;46.30;;;;;;5015788;28;20187;-44
2022/10/05 08:22:45;;;;;;;8.95;4.75;;;17.30;45.50;;;;;;5015908;28;20174;-44
2022/10/05 08:25:24;;;;;;;7.13;4.68;;;17.40;45.80;;;;;;5015824;28;20207;-44
2022/10/05 08:28:07;;;;;;;5.50;4.20;;;17.40;45.30;;;;;;5015918;28;20237;-45
2022/10/05 08:30:46;;;;;;;7.32;4.78;;;17.50;45.60;;;;;;5015931;28;20249;-44
2022/10/05 08:33:17;;;;;;;10.57;5.80;;;17.60;44.80;;;;;;5015597;28;20178;-44
2022/10/05 08:35:49;;;;;;;12.05;4.72;;;17.80;45.50;;;;;;5015537;28;20210;-44
2022/10/05 08:38:44;;;;;;;10.70;5.45;;;17.90;44.70;;;;;;5015521;28;20173;-44
2022/10/05 08:41:37;;;;;;;16.30;6.43;;;18.10;45.10;;;;;;4998789;28;20186;-45
2022/10/05 08:44:41;;;;;;;9.10;4.68;;;18.00;43.60;;;;;;5015712;28;20201;-45
2022/10/05 08:47:23;;;;;;;5.53;4.32;;;18.10;44.30;;;;;;5014932;28;20296;-44
2022/10/05 08:49:49;;;;;;;7.82;5.03;;;18.20;44.10;;;;;;5015446;28;20166;-44
2022/10/05 08:52:27;;;;;;;10.13;5.63;;;18.40;44.30;;;;;;5015354;28;20170;-44
2022/10/05 08:55:21;;;;;;;10.38;5.18;;;18.70;44.60;;;;;;5015480;28;20547;-45
2022/10/05 08:57:52;;;;;;;6.35;4.40;;;18.70;43.60;;;;;;5015373;28;20508;-44
2022/10/05 09:00:19;;;;;;;7.50;4.53;;;18.80;43.70;;;;;;5015195;28;20254;-44
2022/10/05 09:02:51;;;;;;;6.50;5.28;;;18.90;43.70;;;;;;5015157;28;20182;-44
2022/10/05 09:05:35;;;;;;;8.45;5.20;;;18.90;43.40;;;;;;5014834;28;20201;-45
2022/10/05 09:08:04;;;;;;;5.97;4.28;;;19.00;43.40;;;;;;5015020;28;20178;-44
2022/10/05 09:11:02;;;;;;;9.07;5.45;;;19.10;43.60;;;;;;5013919;28;20170;-45
2022/10/05 09:13:36;;;;;;;5.25;4.63;;;19.40;43.60;;;;;;5014885;28;20178;-45
2022/10/05 09:16:13;;;;;;;4.93;4.25;;;19.50;42.60;;;;;;5014592;28;20202;-44
2022/10/05 09:19:17;;;;;;;5.40;4.00;;;19.70;42.80;;;;;;5015018;28;20167;-44
2022/10/05 09:22:10;;;;;;;9.27;4.40;;;19.90;42.40;;;;;;5014974;28;20171;-45
2022/10/05 09:24:56;;;;;;;6.93;4.05;;;20.00;42.50;;;;;;5014849;28;20167;-44
2022/10/05 09:27:37;;;;;;;9.23;4.63;;;20.00;41.30;;;;;;5014732;28;20263;-45
2022/10/05 09:30:25;;;;;;;5.80;3.90;;;20.20;41.00;;;;;;5014788;28;20189;-45
2022/10/05 09:33:16;;;;;;;10.23;4.22;;;20.40;41.80;;;;;;5014385;28;20189;-45
2022/10/05 09:36:16;;;;;;;5.00;4.50;;;20.50;39.70;;;;;;5014107;28;20581;-45
2022/10/05 09:39:03;;;;;;;3.63;3.33;;;20.60;39.40;;;;;;5015201;28;20158;-44
2022/10/05 09:42:05;;;;;;;5.90;3.95;;;20.80;40.30;;;;;;5014639;28;20237;-45
2022/10/05 09:44:46;;;;;;;7.07;5.05;;;21.00;40.20;;;;;;5014474;28;20229;-45
2022/10/05 09:47:49;;;;;;;3.60;3.30;;;21.20;40.70;;;;;;5013521;28;20292;-45
2022/10/05 09:50:33;;;;;;;4.63;3.85;;;21.40;40.50;;;;;;5014135;28;20178;-45
2022/10/05 09:53:28;;;;;;;8.05;3.97;;;21.60;40.00;;;;;;5014126;28;20731;-45
2022/10/05 09:55:56;;;;;;;6.50;3.92;;;21.60;39.10;;;;;;5013279;28;20226;-45
2022/10/05 09:59:06;;;;;;;5.00;3.20;;;21.70;40.00;;;;;;5013979;28;20178;-45
2022/10/05 10:01:52;;;;;;;5.95;4.82;;;21.80;38.00;;;;;;4934363;29;20181;-46
2022/10/05 10:04:44;;;;;;;3.85;3.28;;;22.00;39.50;;;;;;4934162;29;20170;-46
2022/10/05 10:07:49;;;;;;;4.63;3.60;;;22.20;39.80;;;;;;4933483;29;20212;-47
2022/10/05 10:10:44;;;;;;;5.13;3.20;;;22.30;39.00;;;;;;4900756;29;20421;-46
2022/10/05 10:13:52;;;;;;;7.20;3.60;;;22.30;39.20;;;;;;4934050;29;20445;-47
2022/10/05 10:16:31;;;;;;;5.43;4.18;;;22.40;39.00;;;;;;4928583;29;20536;-46
2022/10/05 10:19:03;;;;;;;6.50;4.30;;;22.40;37.20;;;;;;4933848;29;20181;-46
2022/10/05 10:21:58;;;;;;;3.30;3.00;;;22.40;36.30;;;;;;4933619;29;20421;-47
2022/10/05 10:25:03;;;;;;;6.70;4.37;;;22.30;36.30;;;;;;4933720;29;20413;-47
2022/10/05 10:27:59;;;;;;;5.13;3.67;;;22.30;38.00;;;;;;4933162;29;20417;-47
2022/10/05 10:31:01;;;;;;;4.10;3.60;;;22.30;35.70;;;;;;4933712;29;20413;-47
2022/10/05 10:33:58;;;;;;;6.90;3.40;;;22.10;37.50;;;;;;5012517;28;20960;-46
2022/10/05 10:36:49;;;;;;;4.50;3.63;;;22.00;37.00;;;;;;5012643;28;20449;-46
2022/10/05 10:39:24;;;;;;;4.33;3.60;;;21.80;37.70;;;;;;5013248;28;20409;-45
2022/10/05 10:42:28;;;;;;;8.37;4.00;;;21.90;38.40;;;;;;5013198;28;21208;-45
2022/10/05 10:45:16;;;;;;;4.50;3.77;;;22.00;38.60;;;;;;4933145;29;20499;-46
2022/10/05 10:47:50;;;;;;;5.37;3.20;;;22.20;37.30;;;;;;4932822;29;20849;-46
2022/10/05 10:50:56;;;;;;;7.70;4.20;;;22.40;38.10;;;;;;4933228;29;20419;-46
2022/10/05 10:53:40;;;;;;;11.17;5.07;;;22.60;38.70;;;;;;4933241;29;21025;-45
2022/10/05 10:56:30;;;;;;;4.83;4.00;;;22.90;38.00;;;;;;4932533;29;20441;-46
2022/10/05 10:59:22;;;;;;;6.57;3.97;;;23.00;37.50;;;;;;4933139;29;20460;-46
2022/10/05 11:02:26;;;;;;;6.03;3.37;;;23.20;37.70;;;;;;4931985;29;20504;-46
2022/10/05 11:05:19;;;;;;;5.67;3.20;;;23.30;37.00;;;;;;4932913;29;20429;-46
2022/10/05 11:08:03;;;;;;;7.83;3.43;;;23.50;36.90;;;;;;4932505;29;20421;-46
2022/10/05 11:10:34;;;;;;;5.50;3.87;;;23.80;37.10;;;;;;4932942;29;20433;-47
2022/10/05 11:13:15;;;;;;;3.67;3.00;;;24.00;36.20;;;;;;4932842;29;20418;-47
2022/10/05 11:16:08;;;;;;;5.50;3.97;;;23.90;36.10;;;;;;4932263;29;20724;-47
2022/10/05 11:18:49;;;;;;;6.80;3.07;;;23.90;35.80;;;;;;4961246;28;20497;-45
2022/10/05 11:21:39;;;;;;;8.00;2.60;;;23.90;36.20;;;;;;5012569;28;20402;-45
2022/10/05 11:24:27;;;;;;;4.40;2.80;;;23.90;35.30;;;;;;5012691;28;20548;-46
2022/10/05 11:27:25;;;;;;;5.03;2.87;;;23.90;35.90;;;;;;5011763;28;20457;-46
2022/10/05 11:30:02;;;;;;;5.60;3.30;;;24.10;35.70;;;;;;5012554;28;20416;-47
2022/10/05 11:33:05;;;;;;;4.77;2.83;;;24.10;34.80;;;;;;5012013;28;20409;-44
2022/10/05 11:35:45;;;;;;;3.00;2.70;;;24.30;35.80;;;;;;5011915;28;21016;-44
2022/10/05 11:38:16;;;;;;;6.60;3.10;;;24.40;35.80;;;;;;5012556;28;20397;-44
2022/10/05 11:41:01;;;;;;;4.07;3.00;;;24.40;34.70;;;;;;5012249;28;20408;-44
2022/10/05 11:43:45;;;;;;;4.50;3.10;;;24.50;35.10;;;;;;5012570;28;20386;-44
2022/10/05 11:46:19;;;;;;;3.93;3.00;;;24.60;36.00;;;;;;5011499;28;20503;-43
2022/10/05 11:48:54;;;;;;;11.53;3.57;;;24.70;36.10;;;;;;5012299;28;20455;-44
2022/10/05 11:51:56;;;;;;;3.07;2.53;;;24.70;35.70;;;;;;5012121;28;20925;-44
2022/10/05 11:54:53;;;;;;;2.83;2.40;;;24.60;34.40;;;;;;4971058;28;20773;-44
2022/10/05 11:57:37;;;;;;;6.70;2.53;;;24.50;34.90;;;;;;5011903;28;20390;-44
2022/10/05 12:00:17;;;;;;;5.60;2.70;;;24.40;35.50;;;;;;5012387;28;20447;-44
2022/10/05 12:02:54;;;;;;;3.60;3.30;;;24.30;35.50;;;;;;5012195;28;20409;-44
2022/10/05 12:05:45;;;;;;;3.73;2.90;;;24.20;35.90;;;;;;5011934;28;20455;-44
2022/10/05 12:08:24;;;;;;;3.50;2.63;;;24.20;35.30;;;;;;5011903;28;20467;-44
2022/10/05 12:11:19;;;;;;;4.10;2.73;;;24.20;35.90;;;;;;5012068;28;20397;-44
2022/10/05 12:14:19;;;;;;;4.50;4.10;;;24.20;36.50;;;;;;5001214;28;20812;-44
2022/10/05 12:16:58;;;;;;;5.50;2.70;;;24.40;37.00;;;;;;5011389;28;20449;-44
2022/10/05 12:19:35;;;;;;;4.47;2.30;;;24.50;36.10;;;;;;5012262;28;20428;-44
2022/10/05 12:22:34;;;;;;;4.80;2.80;;;24.70;35.00;;;;;;5012312;28;20401;-44
2022/10/05 12:25:10;;;;;;;4.77;2.63;;;24.80;35.20;;;;;;5012070;28;20516;-44
2022/10/05 12:27:44;;;;;;;3.57;2.67;;;24.80;35.40;;;;;;5011550;28;20409;-44
2022/10/05 12:30:31;;;;;;;4.60;2.97;;;24.80;35.00;;;;;;5012147;28;20468;-44
2022/10/05 12:33:32;;;;;;;3.20;2.60;;;24.70;34.70;;;;;;5012168;28;20390;-44
2022/10/05 12:36:30;;;;;;;5.90;2.80;;;24.70;35.50;;;;;;4967366;28;20987;-44
2022/10/05 12:39:14;;;;;;;5.10;3.17;;;24.70;35.40;;;;;;5011753;28;20785;-44
2022/10/05 12:42:14;;;;;;;4.20;2.90;;;24.70;34.50;;;;;;5011849;28;20463;-44
2022/10/05 12:45:02;;;;;;;3.50;2.50;;;24.70;34.80;;;;;;5013351;28;20452;-45
2022/10/05 12:47:34;;;;;;;3.53;2.17;;;24.70;35.40;;;;;;5014819;28;20771;-44
2022/10/05 12:50:17;;;;;;;4.40;3.00;;;24.70;35.50;;;;;;5015431;28;20398;-44
2022/10/05 12:53:08;;;;;;;8.17;2.80;;;24.60;35.30;;;;;;5015191;28;20408;-44
2022/10/05 12:56:06;;;;;;;3.80;2.57;;;24.50;35.40;;;;;;5014804;28;20430;-46
2022/10/05 12:58:55;;;;;;;4.60;3.03;;;24.50;35.30;;;;;;4971582;28;20914;-47
2022/10/05 13:02:02;;;;;;;5.00;2.97;;;24.40;35.30;;;;;;5015027;28;20829;-47
2022/10/05 13:04:34;;;;;;;4.30;3.30;;;24.30;35.90;;;;;;4971366;28;20447;-46
2022/10/05 13:07:34;;;;;;;4.43;3.07;;;24.20;35.90;;;;;;5014261;28;20453;-47
2022/10/05 13:10:23;;;;;;;4.60;3.30;;;24.20;35.90;;;;;;5015011;28;20390;-46
2022/10/05 13:13:01;;;;;;;5.60;2.50;;;24.10;35.90;;;;;;5015065;28;20409;-46
2022/10/05 13:15:39;;;;;;;6.37;4.00;;;24.10;36.10;;;;;;5014944;28;20838;-46
2022/10/05 13:18:23;;;;;;;5.57;4.20;;;24.10;36.30;;;;;;5014694;28;20406;-46
2022/10/05 13:21:07;;;;;;;10.63;5.13;;;24.00;36.10;;;;;;5014695;28;21101;-46
2022/10/05 13:23:44;;;;;;;7.03;3.90;;;24.00;36.60;;;;;;5014680;28;20913;-46
2022/10/05 13:26:38;;;;;;;8.07;4.67;;;24.00;36.50;;;;;;5014013;28;21004;-46
2022/10/05 13:29:22;;;;;;;4.43;3.70;;;24.00;36.80;;;;;;5004996;28;20425;-46
2022/10/05 13:31:59;;;;;;;5.63;3.23;;;24.00;36.60;;;;;;5014535;28;20496;-46
2022/10/05 13:34:42;;;;;;;8.20;3.30;;;24.00;36.90;;;;;;5014495;28;20932;-47
2022/10/05 13:37:34;;;;;;;4.40;4.00;;;24.00;36.80;;;;;;5014316;28;20417;-46
2022/10/05 13:40:27;;;;;;;4.37;3.33;;;23.90;36.40;;;;;;5014411;28;20394;-46
2022/10/05 13:43:08;;;;;;;8.20;3.87;;;23.90;36.80;;;;;;5014248;28;20402;-46
2022/10/05 13:45:43;;;;;;;4.50;3.27;;;23.90;36.90;;;;;;5013981;28;20464;-46
2022/10/05 13:48:45;;;;;;;4.27;3.67;;;24.00;36.90;;;;;;5014493;28;20393;-46
2022/10/05 13:51:22;;;;;;;8.40;4.53;;;24.10;37.20;;;;;;5014102;28;20826;-46
2022/10/05 13:54:09;;;;;;;7.37;3.43;;;24.10;37.40;;;;;;5014527;28;20392;-47
2022/10/05 13:57:19;;;;;;;4.63;2.87;;;24.30;37.40;;;;;;5013010;28;20425;-46
2022/10/05 14:00:21;;;;;;;6.90;3.60;;;24.50;37.70;;;;;;4965040;28;20433;-46
2022/10/05 14:02:51;;;;;;;5.43;3.50;;;24.60;37.60;;;;;;5013910;28;20935;-47
2022/10/05 14:05:21;;;;;;;6.63;4.63;;;24.70;37.80;;;;;;5013786;28;20430;-46
2022/10/05 14:07:56;;;;;;;3.83;3.27;;;24.80;37.70;;;;;;5013446;28;20394;-47
2022/10/05 14:10:45;;;;;;;4.40;3.10;;;25.00;37.70;;;;;;5014091;28;20428;-46
2022/10/05 14:13:45;;;;;;;3.73;3.33;;;25.10;37.40;;;;;;5013798;28;20441;-47